sensor_id;sensor_type;location;lat;lon;timestamp;temperature;humidity
20364;DHT22;10340;53.664;9.908;2022-08-18T00:01:21;19.40;99.90
20364;DHT22;10340;53.664;9.908;2022-08-18T00:03:49;19.30;99.90
20364;DHT22;10340;53.664;9.908;2022-08-18T00:06:17;19.30;99.90
20364;DHT22;10340;53.664;9.908;2022-08-18T00:08:44;19.30;99.90
20364;DHT22;10340;53.664;9.908;2022-08-18T00:11:11;19.30;99.90
20364;DHT22;10340;53.664;9.908;2022-08-18T00:13:38;19.30;99.90
20364;DHT22;10340;53.664;9.908;2022-08-18T00:16:06;19.30;99.90
20364;DHT22;10340;53.664;9.908;2022-08-18T00:18:32;19.30;99.90
20364;DHT22;10340;53.664;9.908;2022-08-18T00:20:59;19.30;99.90
20364;DHT22;10340;53.664;9.908;2022-08-18T00:23:28;19.30;99.90
20364;DHT22;10340;53.664;9.908;2022-08-18T00:25:57;19.20;99.90
20364;DHT22;10340;53.664;9.908;2022-08-18T00:28:24;19.20;99.90
20364;DHT22;10340;53.664;9.908;2022-08-18T00:30:51;19.20;99.90
20364;DHT22;10340;53.664;9.908;2022-08-18T00:33:18;19.20;99.90
20364;DHT22;10340;53.664;9.908;2022-08-18T00:35:45;19.20;99.90
20364;DHT22;10340;53.664;9.908;2022-08-18T00:38:12;19.20;99.90
20364;DHT22;10340;53.664;9.908;2022-08-18T00:40:42;19.20;99.90
20364;DHT22;10340;53.664;9.908;2022-08-18T00:43:17;19.20;99.90
20364;DHT22;10340;53.664;9.908;2022-08-18T00:45:45;19.20;99.90
20364;DHT22;10340;53.664;9.908;2022-08-18T00:48:13;19.20;99.90
20364;DHT22;10340;53.664;9.908;2022-08-18T00:50:44;19.20;99.90
20364;DHT22;10340;53.664;9.908;2022-08-18T00:53:15;19.20;99.90
20364;DHT22;10340;53.664;9.908;2022-08-18T00:55:45;19.10;99.90
20364;DHT22;10340;53.664;9.908;2022-08-18T00:58:16;19.10;99.90
20364;DHT22;10340;53.664;9.908;2022-08-18T01:00:48;19.10;99.90
20364;DHT22;10340;53.664;9.908;2022-08-18T01:03:17;19.10;99.90
20364;DHT22;10340;53.664;9.908;2022-08-18T01:05:49;19.10;99.90
20364;DHT22;10340;53.664;9.908;2022-08-18T01:08:17;19.10;99.90
20364;DHT22;10340;53.664;9.908;2022-08-18T01:10:45;19.10;99.90
20364;DHT22;10340;53.664;9.908;2022-08-18T01:13:13;19.10;99.90
20364;DHT22;10340;53.664;9.908;2022-08-18T01:15:40;19.10;99.90
20364;DHT22;10340;53.664;9.908;2022-08-18T01:18:10;19.10;99.90
20364;DHT22;10340;53.664;9.908;2022-08-18T01:21:07;19.10;99.90
20364;DHT22;10340;53.664;9.908;2022-08-18T01:23:55;19.10;99.90
20364;DHT22;10340;53.664;9.908;2022-08-18T01:26:25;19.10;99.90
20364;DHT22;10340;53.664;9.908;2022-08-18T01:28:51;19.00;99.90
20364;DHT22;10340;53.664;9.908;2022-08-18T01:31:34;19.00;99.90
20364;DHT22;10340;53.664;9.908;2022-08-18T01:34:03;19.00;99.90
20364;DHT22;10340;53.664;9.908;2022-08-18T01:36:32;19.00;99.90
20364;DHT22;10340;53.664;9.908;2022-08-18T01:39:05;19.00;99.90
20364;DHT22;10340;53.664;9.908;2022-08-18T01:41:32;19.00;99.90
20364;DHT22;10340;53.664;9.908;2022-08-18T01:44:01;19.00;99.90
20364;DHT22;10340;53.664;9.908;2022-08-18T01:46:30;19.00;99.90
20364;DHT22;10340;53.664;9.908;2022-08-18T01:48:58;19.00;99.90
20364;DHT22;10340;53.664;9.908;2022-08-18T01:51:26;19.00;99.90
20364;DHT22;10340;53.664;9.908;2022-08-18T01:53:55;18.90;99.90
20364;DHT22;10340;53.664;9.908;2022-08-18T01:56:24;18.90;99.90
20364;DHT22;10340;53.664;9.908;2022-08-18T01:58:52;18.90;99.90
20364;DHT22;10340;53.664;9.908;2022-08-18T02:01:20;18.90;99.90
20364;DHT22;10340;53.664;9.908;2022-08-18T02:03:50;18.90;99.90
20364;DHT22;10340;53.664;9.908;2022-08-18T02:06:19;18.90;99.90
20364;DHT22;10340;53.664;9.908;2022-08-18T02:08:46;18.90;99.90
20364;DHT22;10340;53.664;9.908;2022-08-18T02:11:13;18.90;99.90
20364;DHT22;10340;53.664;9.908;2022-08-18T02:13:41;18.90;99.90
20364;DHT22;10340;53.664;9.908;2022-08-18T02:16:08;18.90;99.90
20364;DHT22;10340;53.664;9.908;2022-08-18T02:18:36;18.90;99.90
20364;DHT22;10340;53.664;9.908;2022-08-18T02:21:08;18.90;99.90
20364;DHT22;10340;53.664;9.908;2022-08-18T02:23:36;18.90;99.90
20364;DHT22;10340;53.664;9.908;2022-08-18T02:26:04;18.80;99.90
20364;DHT22;10340;53.664;9.908;2022-08-18T02:28:31;18.80;99.90
20364;DHT22;10340;53.664;9.908;2022-08-18T02:31:05;18.80;99.90
20364;DHT22;10340;53.664;9.908;2022-08-18T02:33:32;18.80;99.90
20364;DHT22;10340;53.664;9.908;2022-08-18T02:36:00;18.80;99.90
20364;DHT22;10340;53.664;9.908;2022-08-18T02:38:27;18.80;99.90
20364;DHT22;10340;53.664;9.908;2022-08-18T02:40:55;18.80;99.90
20364;DHT22;10340;53.664;9.908;2022-08-18T02:43:22;18.80;99.90
20364;DHT22;10340;53.664;9.908;2022-08-18T02:45:49;18.80;99.90
20364;DHT22;10340;53.664;9.908;2022-08-18T02:48:18;18.80;99.90
20364;DHT22;10340;53.664;9.908;2022-08-18T02:50:48;18.70;99.90
20364;DHT22;10340;53.664;9.908;2022-08-18T02:53:15;18.70;99.90
20364;DHT22;10340;53.664;9.908;2022-08-18T02:55:47;18.60;99.90
20364;DHT22;10340;53.664;9.908;2022-08-18T02:58:14;18.60;99.90
20364;DHT22;10340;53.664;9.908;2022-08-18T03:00:41;18.60;99.90
20364;DHT22;10340;53.664;9.908;2022-08-18T03:03:08;18.50;99.90
20364;DHT22;10340;53.664;9.908;2022-08-18T03:05:36;18.50;99.90
20364;DHT22;10340;53.664;9.908;2022-08-18T03:08:03;18.50;99.90
20364;DHT22;10340;53.664;9.908;2022-08-18T03:10:30;18.40;99.90
20364;DHT22;10340;53.664;9.908;2022-08-18T03:12:57;18.40;99.90
20364;DHT22;10340;53.664;9.908;2022-08-18T03:15:24;18.40;99.90
20364;DHT22;10340;53.664;9.908;2022-08-18T03:17:51;18.30;99.90
20364;DHT22;10340;53.664;9.908;2022-08-18T03:20:18;18.30;99.90
20364;DHT22;10340;53.664;9.908;2022-08-18T03:22:46;18.30;99.90
20364;DHT22;10340;53.664;9.908;2022-08-18T03:25:14;18.30;99.90
20364;DHT22;10340;53.664;9.908;2022-08-18T03:27:41;18.30;99.90
20364;DHT22;10340;53.664;9.908;2022-08-18T03:30:08;18.30;99.90
20364;DHT22;10340;53.664;9.908;2022-08-18T03:32:35;18.30;99.90
20364;DHT22;10340;53.664;9.908;2022-08-18T03:35:03;18.30;99.90
20364;DHT22;10340;53.664;9.908;2022-08-18T03:37:30;18.30;99.90
20364;DHT22;10340;53.664;9.908;2022-08-18T03:39:59;18.30;99.90
20364;DHT22;10340;53.664;9.908;2022-08-18T03:42:26;18.20;99.90
20364;DHT22;10340;53.664;9.908;2022-08-18T03:44:53;18.20;99.90
20364;DHT22;10340;53.664;9.908;2022-08-18T03:47:19;18.20;99.90
20364;DHT22;10340;53.664;9.908;2022-08-18T03:49:46;18.20;99.90
20364;DHT22;10340;53.664;9.908;2022-08-18T03:52:13;18.20;99.90
20364;DHT22;10340;53.664;9.908;2022-08-18T03:54:40;18.20;99.90
20364;DHT22;10340;53.664;9.908;2022-08-18T03:57:09;18.30;99.90
20364;DHT22;10340;53.664;9.908;2022-08-18T03:59:37;18.30;99.90
20364;DHT22;10340;53.664;9.908;2022-08-18T04:02:09;18.40;99.90
20364;DHT22;10340;53.664;9.908;2022-08-18T04:04:36;18.50;99.90
20364;DHT22;10340;53.664;9.908;2022-08-18T04:07:06;18.50;99.90
20364;DHT22;10340;53.664;9.908;2022-08-18T04:09:34;18.40;99.90
20364;DHT22;10340;53.664;9.908;2022-08-18T04:12:04;18.40;99.90
20364;DHT22;10340;53.664;9.908;2022-08-18T04:14:39;18.40;99.90
20364;DHT22;10340;53.664;9.908;2022-08-18T04:17:07;18.40;99.90
20364;DHT22;10340;53.664;9.908;2022-08-18T04:19:34;18.30;99.90
20364;DHT22;10340;53.664;9.908;2022-08-18T04:22:03;18.30;99.90
20364;DHT22;10340;53.664;9.908;2022-08-18T04:24:31;18.30;99.90
20364;DHT22;10340;53.664;9.908;2022-08-18T04:27:01;18.20;99.90
20364;DHT22;10340;53.664;9.908;2022-08-18T04:29:29;18.20;99.90
20364;DHT22;10340;53.664;9.908;2022-08-18T04:31:59;18.20;99.90
20364;DHT22;10340;53.664;9.908;2022-08-18T04:34:29;18.20;99.90
20364;DHT22;10340;53.664;9.908;2022-08-18T04:36:57;18.20;99.90
20364;DHT22;10340;53.664;9.908;2022-08-18T04:39:24;18.20;99.90
20364;DHT22;10340;53.664;9.908;2022-08-18T04:41:51;18.20;99.90
20364;DHT22;10340;53.664;9.908;2022-08-18T04:44:19;18.20;99.90
20364;DHT22;10340;53.664;9.908;2022-08-18T04:46:48;18.20;99.90
20364;DHT22;10340;53.664;9.908;2022-08-18T04:49:19;18.30;99.90
20364;DHT22;10340;53.664;9.908;2022-08-18T04:51:47;18.30;99.90
20364;DHT22;10340;53.664;9.908;2022-08-18T04:54:37;18.30;99.90
20364;DHT22;10340;53.664;9.908;2022-08-18T04:57:08;18.40;99.90
20364;DHT22;10340;53.664;9.908;2022-08-18T04:59:36;18.40;99.90
20364;DHT22;10340;53.664;9.908;2022-08-18T05:02:04;18.50;99.90
20364;DHT22;10340;53.664;9.908;2022-08-18T05:04:33;18.50;99.90
20364;DHT22;10340;53.664;9.908;2022-08-18T05:07:03;18.60;99.90
20364;DHT22;10340;53.664;9.908;2022-08-18T05:09:30;18.60;99.90
20364;DHT22;10340;53.664;9.908;2022-08-18T05:11:57;18.60;99.90
20364;DHT22;10340;53.664;9.908;2022-08-18T05:14:24;18.70;99.90
20364;DHT22;10340;53.664;9.908;2022-08-18T05:16:51;18.80;99.90
20364;DHT22;10340;53.664;9.908;2022-08-18T05:19:19;18.80;99.90
20364;DHT22;10340;53.664;9.908;2022-08-18T05:21:50;18.80;99.90
20364;DHT22;10340;53.664;9.908;2022-08-18T05:24:19;18.90;99.90
20364;DHT22;10340;53.664;9.908;2022-08-18T05:26:46;18.90;99.90
20364;DHT22;10340;53.664;9.908;2022-08-18T05:29:13;19.00;99.90
20364;DHT22;10340;53.664;9.908;2022-08-18T05:31:40;19.10;99.90
20364;DHT22;10340;53.664;9.908;2022-08-18T05:34:07;19.10;99.90
20364;DHT22;10340;53.664;9.908;2022-08-18T05:37:00;19.20;99.90
20364;DHT22;10340;53.664;9.908;2022-08-18T05:39:34;19.30;99.90
20364;DHT22;10340;53.664;9.908;2022-08-18T05:42:06;19.40;99.90
20364;DHT22;10340;53.664;9.908;2022-08-18T05:44:36;19.50;99.90
20364;DHT22;10340;53.664;9.908;2022-08-18T05:47:09;19.50;99.90
20364;DHT22;10340;53.664;9.908;2022-08-18T05:49:37;19.60;99.90
20364;DHT22;10340;53.664;9.908;2022-08-18T05:52:08;19.80;99.90
20364;DHT22;10340;53.664;9.908;2022-08-18T05:54:41;19.90;99.90
20364;DHT22;10340;53.664;9.908;2022-08-18T05:57:29;20.00;99.90
20364;DHT22;10340;53.664;9.908;2022-08-18T05:59:58;20.20;99.90
20364;DHT22;10340;53.664;9.908;2022-08-18T06:02:34;20.30;99.90
20364;DHT22;10340;53.664;9.908;2022-08-18T06:05:06;20.50;99.90
20364;DHT22;10340;53.664;9.908;2022-08-18T06:07:41;20.70;99.90
20364;DHT22;10340;53.664;9.908;2022-08-18T06:10:10;20.90;99.90
20364;DHT22;10340;53.664;9.908;2022-08-18T06:12:39;21.00;99.90
20364;DHT22;10340;53.664;9.908;2022-08-18T06:15:13;21.10;99.90
20364;DHT22;10340;53.664;9.908;2022-08-18T06:18:12;21.20;99.90
20364;DHT22;10340;53.664;9.908;2022-08-18T06:20:56;21.20;99.90
20364;DHT22;10340;53.664;9.908;2022-08-18T06:23:34;21.30;99.90
20364;DHT22;10340;53.664;9.908;2022-08-18T06:26:09;21.20;99.90
20364;DHT22;10340;53.664;9.908;2022-08-18T06:28:47;21.30;99.90
20364;DHT22;10340;53.664;9.908;2022-08-18T06:31:19;21.30;99.90
20364;DHT22;10340;53.664;9.908;2022-08-18T06:33:57;21.30;99.90
20364;DHT22;10340;53.664;9.908;2022-08-18T06:36:36;21.40;99.90
20364;DHT22;10340;53.664;9.908;2022-08-18T06:39:11;21.50;99.90
20364;DHT22;10340;53.664;9.908;2022-08-18T06:41:42;21.50;99.90
20364;DHT22;10340;53.664;9.908;2022-08-18T06:44:11;21.50;99.90
20364;DHT22;10340;53.664;9.908;2022-08-18T06:46:43;21.60;99.90
20364;DHT22;10340;53.664;9.908;2022-08-18T06:49:15;21.60;99.90
20364;DHT22;10340;53.664;9.908;2022-08-18T06:51:44;21.70;99.90
20364;DHT22;10340;53.664;9.908;2022-08-18T06:54:27;21.70;99.90
20364;DHT22;10340;53.664;9.908;2022-08-18T06:56:55;21.80;99.90
20364;DHT22;10340;53.664;9.908;2022-08-18T06:59:25;22.00;99.90
20364;DHT22;10340;53.664;9.908;2022-08-18T07:01:55;21.90;99.90
20364;DHT22;10340;53.664;9.908;2022-08-18T07:04:39;21.90;99.90
20364;DHT22;10340;53.664;9.908;2022-08-18T07:07:19;21.80;99.90
20364;DHT22;10340;53.664;9.908;2022-08-18T07:09:48;21.90;99.90
20364;DHT22;10340;53.664;9.908;2022-08-18T07:12:20;22.00;99.90
20364;DHT22;10340;53.664;9.908;2022-08-18T07:14:50;21.80;99.90
20364;DHT22;10340;53.664;9.908;2022-08-18T07:17:21;21.80;99.90
20364;DHT22;10340;53.664;9.908;2022-08-18T07:19:56;21.70;99.90
20364;DHT22;10340;53.664;9.908;2022-08-18T07:22:24;21.70;99.90
20364;DHT22;10340;53.664;9.908;2022-08-18T07:24:54;21.60;99.90
20364;DHT22;10340;53.664;9.908;2022-08-18T07:27:39;22.50;99.90
20364;DHT22;10340;53.664;9.908;2022-08-18T07:30:10;21.20;99.90
20364;DHT22;10340;53.664;9.908;2022-08-18T07:32:42;21.10;99.90
20364;DHT22;10340;53.664;9.908;2022-08-18T07:35:13;21.10;99.90
20364;DHT22;10340;53.664;9.908;2022-08-18T07:37:45;21.00;99.90
20364;DHT22;10340;53.664;9.908;2022-08-18T07:40:23;20.90;99.90
20364;DHT22;10340;53.664;9.908;2022-08-18T07:42:55;20.90;99.90
20364;DHT22;10340;53.664;9.908;2022-08-18T07:45:28;20.80;99.90
20364;DHT22;10340;53.664;9.908;2022-08-18T07:48:06;20.80;99.90
20364;DHT22;10340;53.664;9.908;2022-08-18T07:50:41;20.80;99.90
20364;DHT22;10340;53.664;9.908;2022-08-18T07:53:16;20.80;99.90
20364;DHT22;10340;53.664;9.908;2022-08-18T07:55:53;20.70;99.90
20364;DHT22;10340;53.664;9.908;2022-08-18T07:58:25;20.60;99.90
20364;DHT22;10340;53.664;9.908;2022-08-18T08:01:02;20.60;99.90
20364;DHT22;10340;53.664;9.908;2022-08-18T08:03:37;20.60;99.90
20364;DHT22;10340;53.664;9.908;2022-08-18T08:06:11;20.60;99.90
20364;DHT22;10340;53.664;9.908;2022-08-18T08:08:42;20.50;99.90
20364;DHT22;10340;53.664;9.908;2022-08-18T08:11:29;20.60;99.90
20364;DHT22;10340;53.664;9.908;2022-08-18T08:14:08;20.60;99.90
20364;DHT22;10340;53.664;9.908;2022-08-18T08:16:42;20.70;99.90
20364;DHT22;10340;53.664;9.908;2022-08-18T08:22:18;20.70;99.90
20364;DHT22;10340;53.664;9.908;2022-08-18T08:24:50;20.90;99.90
20364;DHT22;10340;53.664;9.908;2022-08-18T08:27:25;21.00;99.90
20364;DHT22;10340;53.664;9.908;2022-08-18T08:29:59;21.20;99.90
20364;DHT22;10340;53.664;9.908;2022-08-18T08:32:31;21.40;99.90
20364;DHT22;10340;53.664;9.908;2022-08-18T08:35:05;21.50;99.90
20364;DHT22;10340;53.664;9.908;2022-08-18T08:37:39;21.60;99.90
20364;DHT22;10340;53.664;9.908;2022-08-18T08:40:14;21.60;99.90
20364;DHT22;10340;53.664;9.908;2022-08-18T08:42:56;21.70;99.90
20364;DHT22;10340;53.664;9.908;2022-08-18T08:45:27;21.70;99.90
20364;DHT22;10340;53.664;9.908;2022-08-18T08:48:01;21.70;99.90
20364;DHT22;10340;53.664;9.908;2022-08-18T08:50:35;21.70;99.90
20364;DHT22;10340;53.664;9.908;2022-08-18T08:53:07;21.70;99.90
20364;DHT22;10340;53.664;9.908;2022-08-18T08:55:44;21.80;99.90
20364;DHT22;10340;53.664;9.908;2022-08-18T08:58:19;22.00;99.90
20364;DHT22;10340;53.664;9.908;2022-08-18T09:00:48;22.20;99.90
20364;DHT22;10340;53.664;9.908;2022-08-18T09:03:36;22.40;99.90
20364;DHT22;10340;53.664;9.908;2022-08-18T09:06:18;22.30;99.90
20364;DHT22;10340;53.664;9.908;2022-08-18T09:09:00;22.40;99.90
20364;DHT22;10340;53.664;9.908;2022-08-18T09:11:47;22.40;99.90
20364;DHT22;10340;53.664;9.908;2022-08-18T09:14:34;22.50;99.90
20364;DHT22;10340;53.664;9.908;2022-08-18T09:17:20;22.50;99.90
20364;DHT22;10340;53.664;9.908;2022-08-18T09:20:00;22.50;99.90
20364;DHT22;10340;53.664;9.908;2022-08-18T09:22:37;22.50;99.90
20364;DHT22;10340;53.664;9.908;2022-08-18T09:25:11;22.50;99.90
20364;DHT22;10340;53.664;9.908;2022-08-18T09:28:07;22.50;99.90
20364;DHT22;10340;53.664;9.908;2022-08-18T09:30:44;22.50;99.90
20364;DHT22;10340;53.664;9.908;2022-08-18T09:33:33;22.60;99.90
20364;DHT22;10340;53.664;9.908;2022-08-18T09:36:19;22.70;99.90
20364;DHT22;10340;53.664;9.908;2022-08-18T09:38:51;22.80;99.90
20364;DHT22;10340;53.664;9.908;2022-08-18T09:41:46;22.70;99.90
20364;DHT22;10340;53.664;9.908;2022-08-18T09:48:00;23.10;99.90
20364;DHT22;10340;53.664;9.908;2022-08-18T09:53:33;23.50;99.90
20364;DHT22;10340;53.664;9.908;2022-08-18T09:56:02;23.70;99.90
20364;DHT22;10340;53.664;9.908;2022-08-18T09:58:54;23.50;99.90
20364;DHT22;10340;53.664;9.908;2022-08-18T10:01:35;23.40;99.90
20364;DHT22;10340;53.664;9.908;2022-08-18T10:04:28;23.50;99.90
20364;DHT22;10340;53.664;9.908;2022-08-18T10:07:14;23.50;99.90
20364;DHT22;10340;53.664;9.908;2022-08-18T10:12:41;23.50;99.90
20364;DHT22;10340;53.664;9.908;2022-08-18T10:15:33;23.50;99.90
20364;DHT22;10340;53.664;9.908;2022-08-18T10:21:27;23.80;99.90
20364;DHT22;10340;53.664;9.908;2022-08-18T10:23:57;23.80;99.90
20364;DHT22;10340;53.664;9.908;2022-08-18T10:29:54;23.90;99.90
20364;DHT22;10340;53.664;9.908;2022-08-18T10:32:37;23.80;99.90
20364;DHT22;10340;53.664;9.908;2022-08-18T10:37:50;23.80;99.90
20364;DHT22;10340;53.664;9.908;2022-08-18T10:40:20;23.90;99.90
20364;DHT22;10340;53.664;9.908;2022-08-18T10:42:51;24.00;99.90
20364;DHT22;10340;53.664;9.908;2022-08-18T10:45:21;24.00;99.90
20364;DHT22;10340;53.664;9.908;2022-08-18T10:47:58;24.10;99.90
20364;DHT22;10340;53.664;9.908;2022-08-18T10:50:29;24.10;99.90
20364;DHT22;10340;53.664;9.908;2022-08-18T10:53:08;24.20;99.90
20364;DHT22;10340;53.664;9.908;2022-08-18T10:55:51;24.40;99.90
20364;DHT22;10340;53.664;9.908;2022-08-18T10:58:56;24.50;99.90
20364;DHT22;10340;53.664;9.908;2022-08-18T11:01:43;24.50;99.90
20364;DHT22;10340;53.664;9.908;2022-08-18T11:04:28;24.50;99.90
20364;DHT22;10340;53.664;9.908;2022-08-18T11:07:13;24.50;99.90
20364;DHT22;10340;53.664;9.908;2022-08-18T11:09:46;24.50;99.90
20364;DHT22;10340;53.664;9.908;2022-08-18T11:12:38;24.50;99.90
20364;DHT22;10340;53.664;9.908;2022-08-18T11:15:14;24.60;99.90
20364;DHT22;10340;53.664;9.908;2022-08-18T11:17:55;24.60;99.90
20364;DHT22;10340;53.664;9.908;2022-08-18T11:20:29;24.80;99.90
20364;DHT22;10340;53.664;9.908;2022-08-18T11:22:59;24.90;99.90
20364;DHT22;10340;53.664;9.908;2022-08-18T11:25:30;25.00;99.90
20364;DHT22;10340;53.664;9.908;2022-08-18T11:27:57;25.10;99.90
20364;DHT22;10340;53.664;9.908;2022-08-18T11:30:28;25.40;99.90
20364;DHT22;10340;53.664;9.908;2022-08-18T11:32:55;25.60;99.90
20364;DHT22;10340;53.664;9.908;2022-08-18T11:35:25;25.60;99.90
20364;DHT22;10340;53.664;9.908;2022-08-18T11:37:56;25.60;99.90
20364;DHT22;10340;53.664;9.908;2022-08-18T11:40:36;25.60;99.90
20364;DHT22;10340;53.664;9.908;2022-08-18T11:43:09;25.60;99.90
20364;DHT22;10340;53.664;9.908;2022-08-18T11:45:50;25.90;99.90
20364;DHT22;10340;53.664;9.908;2022-08-18T11:48:21;25.90;99.90
20364;DHT22;10340;53.664;9.908;2022-08-18T11:50:59;25.90;99.90
20364;DHT22;10340;53.664;9.908;2022-08-18T11:53:37;25.90;99.90
20364;DHT22;10340;53.664;9.908;2022-08-18T11:56:15;26.00;99.90
20364;DHT22;10340;53.664;9.908;2022-08-18T11:58:44;26.00;99.90
20364;DHT22;10340;53.664;9.908;2022-08-18T12:01:27;26.00;99.90
20364;DHT22;10340;53.664;9.908;2022-08-18T12:03:57;25.90;99.90
20364;DHT22;10340;53.664;9.908;2022-08-18T12:06:27;25.70;99.90
20364;DHT22;10340;53.664;9.908;2022-08-18T12:08:58;25.60;99.90
20364;DHT22;10340;53.664;9.908;2022-08-18T12:11:30;25.60;99.90
20364;DHT22;10340;53.664;9.908;2022-08-18T12:14:02;25.70;99.90
20364;DHT22;10340;53.664;9.908;2022-08-18T12:16:37;25.90;99.90
20364;DHT22;10340;53.664;9.908;2022-08-18T12:19:06;26.20;99.90
20364;DHT22;10340;53.664;9.908;2022-08-18T12:21:37;26.30;99.90
20364;DHT22;10340;53.664;9.908;2022-08-18T12:24:05;26.40;99.90
20364;DHT22;10340;53.664;9.908;2022-08-18T12:26:36;26.60;99.90
20364;DHT22;10340;53.664;9.908;2022-08-18T12:29:03;26.60;99.90
20364;DHT22;10340;53.664;9.908;2022-08-18T12:31:30;26.70;99.90
20364;DHT22;10340;53.664;9.908;2022-08-18T12:33:57;26.90;99.90
20364;DHT22;10340;53.664;9.908;2022-08-18T12:36:24;27.10;99.90
20364;DHT22;10340;53.664;9.908;2022-08-18T12:38:51;27.30;99.90
20364;DHT22;10340;53.664;9.908;2022-08-18T12:41:18;27.20;99.90
20364;DHT22;10340;53.664;9.908;2022-08-18T12:43:47;27.30;99.90
20364;DHT22;10340;53.664;9.908;2022-08-18T12:46:14;27.50;99.90
20364;DHT22;10340;53.664;9.908;2022-08-18T12:48:40;27.50;99.90
20364;DHT22;10340;53.664;9.908;2022-08-18T12:51:07;27.50;99.90
20364;DHT22;10340;53.664;9.908;2022-08-18T12:53:35;27.30;99.90
20364;DHT22;10340;53.664;9.908;2022-08-18T12:56:03;27.30;99.90
20364;DHT22;10340;53.664;9.908;2022-08-18T12:58:32;27.10;99.90
20364;DHT22;10340;53.664;9.908;2022-08-18T13:01:00;26.80;99.90
20364;DHT22;10340;53.664;9.908;2022-08-18T13:03:27;26.50;99.90
20364;DHT22;10340;53.664;9.908;2022-08-18T13:05:54;26.30;99.90
20364;DHT22;10340;53.664;9.908;2022-08-18T13:08:21;26.30;99.90
20364;DHT22;10340;53.664;9.908;2022-08-18T13:10:49;26.40;99.90
20364;DHT22;10340;53.664;9.908;2022-08-18T13:13:17;26.70;99.90
20364;DHT22;10340;53.664;9.908;2022-08-18T13:15:45;26.90;99.90
20364;DHT22;10340;53.664;9.908;2022-08-18T13:18:14;27.00;99.90
20364;DHT22;10340;53.664;9.908;2022-08-18T13:20:41;27.10;99.90
20364;DHT22;10340;53.664;9.908;2022-08-18T13:23:07;27.20;99.90
20364;DHT22;10340;53.664;9.908;2022-08-18T13:25:34;27.20;99.90
20364;DHT22;10340;53.664;9.908;2022-08-18T13:28:03;27.40;99.90
20364;DHT22;10340;53.664;9.908;2022-08-18T13:30:30;27.40;99.90
20364;DHT22;10340;53.664;9.908;2022-08-18T13:32:58;27.50;99.90
20364;DHT22;10340;53.664;9.908;2022-08-18T13:35:26;27.70;99.90
20364;DHT22;10340;53.664;9.908;2022-08-18T13:37:54;27.70;99.90
20364;DHT22;10340;53.664;9.908;2022-08-18T13:40:21;27.70;99.90
20364;DHT22;10340;53.664;9.908;2022-08-18T13:42:48;27.50;99.90
20364;DHT22;10340;53.664;9.908;2022-08-18T13:45:17;27.20;99.90
20364;DHT22;10340;53.664;9.908;2022-08-18T13:47:45;27.10;99.90
20364;DHT22;10340;53.664;9.908;2022-08-18T13:50:14;27.00;99.90
20364;DHT22;10340;53.664;9.908;2022-08-18T13:52:43;26.80;99.90
20364;DHT22;10340;53.664;9.908;2022-08-18T13:55:12;26.80;99.90
20364;DHT22;10340;53.664;9.908;2022-08-18T13:57:40;26.90;99.90
20364;DHT22;10340;53.664;9.908;2022-08-18T14:00:14;26.90;99.90
20364;DHT22;10340;53.664;9.908;2022-08-18T14:02:42;27.10;99.90
20364;DHT22;10340;53.664;9.908;2022-08-18T14:05:09;27.20;99.90
20364;DHT22;10340;53.664;9.908;2022-08-18T14:07:36;27.20;99.90
20364;DHT22;10340;53.664;9.908;2022-08-18T14:10:06;27.40;99.90
20364;DHT22;10340;53.664;9.908;2022-08-18T14:12:34;27.60;99.90
20364;DHT22;10340;53.664;9.908;2022-08-18T14:15:04;27.70;99.90
20364;DHT22;10340;53.664;9.908;2022-08-18T14:17:33;27.60;99.90
20364;DHT22;10340;53.664;9.908;2022-08-18T14:20:01;27.30;99.90
20364;DHT22;10340;53.664;9.908;2022-08-18T14:22:45;27.20;99.90
20364;DHT22;10340;53.664;9.908;2022-08-18T14:25:31;27.00;99.90
20364;DHT22;10340;53.664;9.908;2022-08-18T14:28:16;26.80;99.90
20364;DHT22;10340;53.664;9.908;2022-08-18T14:30:44;26.60;99.90
20364;DHT22;10340;53.664;9.908;2022-08-18T14:33:11;26.70;99.90
20364;DHT22;10340;53.664;9.908;2022-08-18T14:35:39;26.70;99.90
20364;DHT22;10340;53.664;9.908;2022-08-18T14:38:07;26.60;99.90
20364;DHT22;10340;53.664;9.908;2022-08-18T14:40:37;26.50;99.90
20364;DHT22;10340;53.664;9.908;2022-08-18T14:43:04;26.40;99.90
20364;DHT22;10340;53.664;9.908;2022-08-18T14:45:31;26.40;99.90
20364;DHT22;10340;53.664;9.908;2022-08-18T14:47:58;26.40;99.90
20364;DHT22;10340;53.664;9.908;2022-08-18T14:50:25;26.30;99.90
20364;DHT22;10340;53.664;9.908;2022-08-18T14:52:53;26.30;99.90
20364;DHT22;10340;53.664;9.908;2022-08-18T14:55:20;26.10;99.90
20364;DHT22;10340;53.664;9.908;2022-08-18T14:57:49;26.10;99.90
20364;DHT22;10340;53.664;9.908;2022-08-18T15:00:17;26.20;99.90
20364;DHT22;10340;53.664;9.908;2022-08-18T15:02:45;26.20;99.90
20364;DHT22;10340;53.664;9.908;2022-08-18T15:05:13;26.20;99.90
20364;DHT22;10340;53.664;9.908;2022-08-18T15:07:40;26.20;99.90
20364;DHT22;10340;53.664;9.908;2022-08-18T15:10:09;26.20;99.90
20364;DHT22;10340;53.664;9.908;2022-08-18T15:12:36;25.90;99.90
20364;DHT22;10340;53.664;9.908;2022-08-18T15:15:08;25.80;99.90
20364;DHT22;10340;53.664;9.908;2022-08-18T15:17:36;25.70;99.90
20364;DHT22;10340;53.664;9.908;2022-08-18T15:20:05;25.70;99.90
20364;DHT22;10340;53.664;9.908;2022-08-18T15:22:37;25.90;99.90
20364;DHT22;10340;53.664;9.908;2022-08-18T15:25:36;25.90;99.90
20364;DHT22;10340;53.664;9.908;2022-08-18T15:28:13;25.90;99.90
20364;DHT22;10340;53.664;9.908;2022-08-18T15:30:43;26.10;99.90
20364;DHT22;10340;53.664;9.908;2022-08-18T15:33:11;26.20;99.90
20364;DHT22;10340;53.664;9.908;2022-08-18T15:35:40;26.20;99.90
20364;DHT22;10340;53.664;9.908;2022-08-18T15:38:07;26.30;99.90
20364;DHT22;10340;53.664;9.908;2022-08-18T15:40:38;26.40;99.90
20364;DHT22;10340;53.664;9.908;2022-08-18T15:43:12;26.30;99.90
20364;DHT22;10340;53.664;9.908;2022-08-18T15:45:41;26.20;99.90
20364;DHT22;10340;53.664;9.908;2022-08-18T15:48:14;26.10;99.90
20364;DHT22;10340;53.664;9.908;2022-08-18T15:50:41;26.10;99.90
20364;DHT22;10340;53.664;9.908;2022-08-18T15:53:11;26.10;99.90
20364;DHT22;10340;53.664;9.908;2022-08-18T15:55:39;26.20;99.90
20364;DHT22;10340;53.664;9.908;2022-08-18T15:58:07;26.30;99.90
20364;DHT22;10340;53.664;9.908;2022-08-18T16:00:34;26.40;99.90
20364;DHT22;10340;53.664;9.908;2022-08-18T16:03:04;26.40;99.90
20364;DHT22;10340;53.664;9.908;2022-08-18T16:05:34;26.50;99.90
20364;DHT22;10340;53.664;9.908;2022-08-18T16:08:02;26.40;99.90
20364;DHT22;10340;53.664;9.908;2022-08-18T16:10:32;26.30;99.90
20364;DHT22;10340;53.664;9.908;2022-08-18T16:13:00;26.40;99.90
20364;DHT22;10340;53.664;9.908;2022-08-18T16:15:33;26.40;99.90
20364;DHT22;10340;53.664;9.908;2022-08-18T16:18:00;26.50;99.90
20364;DHT22;10340;53.664;9.908;2022-08-18T16:20:27;26.50;99.90